createdAt,value
2022-11-23T00:01:24.772Z,21.15
2022-11-23T00:04:29.079Z,21.50
2022-11-23T00:07:32.540Z,19.92
2022-11-23T00:10:35.219Z,20.50
2022-11-23T00:13:40.874Z,18.70
2022-11-23T00:16:43.959Z,18.85
2022-11-23T00:19:46.062Z,18.67
2022-11-23T00:22:48.177Z,17.58
2022-11-23T00:25:50.649Z,18.20
2022-11-23T00:28:53.070Z,14.68
2022-11-23T00:31:58.297Z,16.98
2022-11-23T00:35:00.398Z,17.00
2022-11-23T00:38:02.461Z,15.93
2022-11-23T00:41:08.675Z,15.98
2022-11-23T00:44:11.110Z,16.85
2022-11-23T00:50:34.959Z,16.00
2022-11-23T00:53:37.362Z,16.80
2022-11-23T00:56:40.341Z,16.10
2022-11-23T00:59:42.781Z,16.70
2022-11-23T01:02:45.792Z,17.80
2022-11-23T01:05:48.172Z,15.38
2022-11-23T01:08:53.015Z,13.80
2022-11-23T01:11:55.432Z,14.65
2022-11-23T01:14:59.110Z,13.82
2022-11-23T01:18:01.398Z,11.25
2022-11-23T01:21:07.224Z,12.15
2022-11-23T01:24:14.049Z,13.23
2022-11-23T01:27:16.519Z,10.90
2022-11-23T01:30:18.723Z,12.82
2022-11-23T01:33:20.824Z,10.85
2022-11-23T01:36:25.973Z,10.43
2022-11-23T01:39:28.271Z,12.05
2022-11-23T01:42:53.249Z,10.05
2022-11-23T01:46:00.130Z,10.77
2022-11-23T01:49:07.328Z,12.07
2022-11-23T01:52:17.635Z,12.00
2022-11-23T01:55:20.928Z,11.73
2022-11-23T01:58:26.686Z,10.27
2022-11-23T02:01:29.205Z,10.65
2022-11-23T02:04:42.914Z,10.30
2022-11-23T02:07:50.295Z,12.77
2022-11-23T02:10:55.268Z,14.43
2022-11-23T02:14:00.527Z,15.32
2022-11-23T02:17:05.313Z,13.07
2022-11-23T02:20:09.883Z,11.95
2022-11-23T02:23:46.737Z,11.30
2022-11-23T02:26:49.764Z,10.75
2022-11-23T02:29:53.654Z,11.40
2022-11-23T02:32:56.441Z,10.35
2022-11-23T02:36:01.563Z,10.02
2022-11-23T02:39:17.071Z,10.73
2022-11-23T02:42:20.754Z,13.13
2022-11-23T02:45:31.797Z,10.30
2022-11-23T02:48:36.382Z,11.52
2022-11-23T02:51:39.146Z,12.98
2022-11-23T02:54:41.700Z,12.88
2022-11-23T02:57:43.902Z,11.73
2022-11-23T03:00:47.093Z,11.35
2022-11-23T03:03:54.045Z,11.38
2022-11-23T03:06:57.537Z,11.73
2022-11-23T03:09:59.985Z,12.40
2022-11-23T03:13:02.150Z,13.95
2022-11-23T03:16:08.808Z,11.25
2022-11-23T03:19:11.083Z,11.23
2022-11-23T03:22:13.744Z,10.57
2022-11-23T03:25:15.885Z,13.32
2022-11-23T03:28:22.282Z,12.63
2022-11-23T03:31:26.783Z,12.30
2022-11-23T03:34:29.577Z,12.88
2022-11-23T03:37:33.061Z,14.45
2022-11-23T03:40:35.304Z,15.10
2022-11-23T03:43:51.358Z,13.25
2022-11-23T03:46:53.650Z,14.80
2022-11-23T03:49:56.186Z,15.07
2022-11-23T03:52:59.997Z,13.65
2022-11-23T03:56:05.109Z,15.15
2022-11-23T03:59:10.991Z,12.68
2022-11-23T04:02:14.616Z,12.93
2022-11-23T04:05:26.253Z,13.32
2022-11-23T04:08:47.389Z,13.90
2022-11-23T04:12:01.398Z,11.98
2022-11-23T04:15:06.140Z,12.50
2022-11-23T04:18:08.579Z,11.13
2022-11-23T04:21:13.092Z,12.63
2022-11-23T04:24:15.550Z,11.23
2022-11-23T04:27:19.721Z,12.38
2022-11-23T04:30:21.851Z,12.63
2022-11-23T04:33:23.944Z,10.60
2022-11-23T04:36:29.756Z,10.85
2022-11-23T04:39:32.373Z,13.07
2022-11-23T04:42:54.575Z,11.82
2022-11-23T04:46:02.940Z,10.85
2022-11-23T04:49:06.310Z,11.48
2022-11-23T04:52:08.528Z,10.75
2022-11-23T04:55:17.445Z,10.65
2022-11-23T04:58:31.587Z,9.68
2022-11-23T05:01:36.646Z,10.10
2022-11-23T05:05:00.438Z,10.68
2022-11-23T05:08:07.057Z,11.53
2022-11-23T05:11:29.763Z,10.32
2022-11-23T05:14:35.552Z,10.85
2022-11-23T05:17:38.730Z,10.07
2022-11-23T05:20:46.303Z,11.07
2022-11-23T05:23:50.140Z,11.05
2022-11-23T05:26:56.406Z,10.85
2022-11-23T05:30:01.688Z,11.13
2022-11-23T05:33:08.765Z,10.75
2022-11-23T05:36:16.014Z,12.20
2022-11-23T05:39:18.227Z,10.85
2022-11-23T05:42:25.353Z,11.57
2022-11-23T05:45:30.807Z,11.10
2022-11-23T05:48:33.586Z,10.32
2022-11-23T05:51:42.921Z,10.02
2022-11-23T05:54:46.211Z,10.50
2022-11-23T05:57:50.672Z,9.70
2022-11-23T06:00:58.296Z,9.88
2022-11-23T06:04:05.411Z,9.95
2022-11-23T06:07:12.210Z,11.10
2022-11-23T06:10:38.821Z,9.98
2022-11-23T06:13:42.136Z,9.63
2022-11-23T06:16:45.839Z,9.15
2022-11-23T06:20:14.322Z,9.68
2022-11-23T06:23:20.324Z,9.20
2022-11-23T06:26:24.782Z,8.93
2022-11-23T06:29:28.392Z,7.47
2022-11-23T06:32:32.938Z,8.95
2022-11-23T06:35:35.670Z,8.70
2022-11-23T06:38:38.056Z,8.48
2022-11-23T06:41:46.680Z,8.60
2022-11-23T06:44:49.723Z,8.55
2022-11-23T06:48:04.769Z,5.07
2022-11-23T06:51:17.692Z,5.28
2022-11-23T06:54:27.216Z,5.20
2022-11-23T06:57:30.520Z,8.40
2022-11-23T07:00:35.468Z,8.23
2022-11-23T07:03:39.267Z,8.88
2022-11-23T07:06:51.828Z,8.43
2022-11-23T07:10:21.285Z,8.85
2022-11-23T07:13:38.344Z,7.47
2022-11-23T07:16:40.599Z,7.60
2022-11-23T07:19:43.370Z,7.65
2022-11-23T07:22:45.645Z,8.25
2022-11-23T07:25:47.813Z,8.27
2022-11-23T07:28:49.932Z,8.57
2022-11-23T07:31:53.663Z,8.40
2022-11-23T07:34:59.687Z,8.82
2022-11-23T07:38:04.313Z,8.27
2022-11-23T07:41:06.559Z,8.77
2022-11-23T07:47:27.338Z,8.25
2022-11-23T07:50:29.669Z,8.73
2022-11-23T07:53:31.751Z,8.73
2022-11-23T07:56:34.434Z,9.18
2022-11-23T07:59:36.626Z,9.43
2022-11-23T08:02:52.851Z,10.10
2022-11-23T08:06:01.471Z,9.90
2022-11-23T08:09:03.578Z,9.23
2022-11-23T08:12:06.713Z,10.80
2022-11-23T08:15:09.263Z,8.05
2022-11-23T08:18:11.251Z,8.95
2022-11-23T08:21:13.345Z,8.98
2022-11-23T08:24:15.309Z,8.98
2022-11-23T08:27:17.658Z,8.10
2022-11-23T08:30:19.759Z,8.07
2022-11-23T08:33:21.745Z,6.75
2022-11-23T08:36:24.072Z,6.25
2022-11-23T08:39:26.503Z,7.00
2022-11-23T08:42:30.813Z,6.75
2022-11-23T08:45:32.934Z,7.45
2022-11-23T08:48:35.084Z,7.07
2022-11-23T08:51:37.278Z,6.57
2022-11-23T08:54:39.436Z,7.05
2022-11-23T08:57:41.533Z,5.78
2022-11-23T09:00:43.713Z,8.23
2022-11-23T09:03:45.913Z,7.35
2022-11-23T09:06:48.027Z,7.47
2022-11-23T09:09:50.126Z,8.73
2022-11-23T09:12:52.294Z,7.65
2022-11-23T09:15:58.918Z,5.43
2022-11-23T09:19:00.933Z,7.72
2022-11-23T09:22:03.517Z,6.30
2022-11-23T09:25:07.139Z,7.65
2022-11-23T09:28:09.399Z,7.97
2022-11-23T09:31:11.413Z,8.30
2022-11-23T09:34:14.402Z,8.75
2022-11-23T09:37:16.549Z,8.98
2022-11-23T09:40:18.911Z,7.88
2022-11-23T09:43:32.528Z,7.88
2022-11-23T09:46:43.383Z,7.68
2022-11-23T09:50:06.482Z,7.45
2022-11-23T09:53:15.658Z,11.57
2022-11-23T09:56:27.512Z,6.93
2022-11-23T09:59:44.062Z,8.50
2022-11-23T10:02:47.510Z,7.35
2022-11-23T10:06:01.566Z,8.00
2022-11-23T10:09:09.020Z,8.57
2022-11-23T10:12:22.391Z,7.10
2022-11-23T10:15:33.931Z,6.97
2022-11-23T10:34:50.936Z,5.90
2022-11-23T10:38:20.009Z,4.38
2022-11-23T10:41:23.069Z,4.57
2022-11-23T10:44:34.851Z,4.70
2022-11-23T10:47:59.577Z,3.63
2022-11-23T10:51:29.083Z,6.13
2022-11-23T10:54:48.452Z,5.05
2022-11-23T10:57:53.292Z,4.13
2022-11-23T11:01:03.087Z,4.47
2022-11-23T11:04:22.341Z,5.00
2022-11-23T11:07:30.087Z,6.75
2022-11-23T11:10:43.180Z,4.18
2022-11-23T11:13:50.420Z,5.45
2022-11-23T11:16:55.426Z,5.53
2022-11-23T11:19:57.763Z,5.53
2022-11-23T11:23:05.286Z,5.72
2022-11-23T11:26:19.997Z,6.53
2022-11-23T11:29:51.073Z,6.47
2022-11-23T11:33:21.477Z,6.10
2022-11-23T11:36:28.291Z,6.78
2022-11-23T11:39:59.248Z,5.95
2022-11-23T11:43:19.705Z,5.47
2022-11-23T11:46:32.209Z,6.03
2022-11-23T11:49:42.819Z,5.53
2022-11-23T11:52:46.990Z,4.85
2022-11-23T11:55:57.697Z,5.85
2022-11-23T11:59:26.130Z,5.88
2022-11-23T12:02:55.913Z,6.15
2022-11-23T12:06:08.775Z,4.85
2022-11-23T12:09:19.104Z,5.85
2022-11-23T12:12:32.308Z,4.88
2022-11-23T12:15:49.424Z,4.72
2022-11-23T12:19:14.898Z,3.47
2022-11-23T12:22:35.583Z,5.85
2022-11-23T12:25:42.127Z,5.07
2022-11-23T12:28:49.966Z,5.00
2022-11-23T12:32:02.360Z,4.13
2022-11-23T12:35:42.588Z,4.95
2022-11-23T12:42:10.319Z,6.18
2022-11-23T12:45:17.943Z,5.82
2022-11-23T12:48:46.680Z,6.50
2022-11-23T12:52:05.271Z,5.70
2022-11-23T12:55:33.277Z,4.95
2022-11-23T12:58:38.716Z,4.35
2022-11-23T13:01:49.845Z,4.50
2022-11-23T13:05:08.205Z,4.97
2022-11-23T13:08:12.848Z,4.10
2022-11-23T13:11:26.762Z,3.90
2022-11-23T13:14:40.644Z,4.38
2022-11-23T13:18:07.392Z,4.00
2022-11-23T13:21:20.626Z,4.63
2022-11-23T13:24:25.397Z,4.68
2022-11-23T13:27:31.943Z,5.18
2022-11-23T13:31:13.286Z,5.47
2022-11-23T13:34:44.856Z,5.70
2022-11-23T13:38:03.128Z,5.03
2022-11-23T13:41:34.181Z,6.50
2022-11-23T13:44:37.677Z,5.30
2022-11-23T13:47:43.629Z,4.97
2022-11-23T13:50:49.048Z,5.43
2022-11-23T13:53:57.711Z,5.30
2022-11-23T14:00:53.194Z,5.63
2022-11-23T14:04:00.537Z,5.85
2022-11-23T14:07:13.099Z,6.05
2022-11-23T14:10:24.483Z,5.97
2022-11-23T14:13:33.283Z,6.43
2022-11-23T14:16:57.529Z,4.88
2022-11-23T14:20:07.990Z,6.25
2022-11-23T14:23:40.559Z,6.93
2022-11-23T14:27:39.091Z,7.18
2022-11-23T14:30:44.707Z,6.57
2022-11-23T14:33:54.443Z,7.22
2022-11-23T14:37:40.743Z,7.05
2022-11-23T14:41:04.757Z,6.85
2022-11-23T14:44:21.568Z,8.77
2022-11-23T14:47:42.688Z,8.00
2022-11-23T14:50:56.274Z,8.48
2022-11-23T14:54:01.701Z,9.00
2022-11-23T14:57:05.060Z,8.13
2022-11-23T15:00:11.830Z,7.97
2022-11-23T15:03:49.573Z,7.63
2022-11-23T15:07:35.848Z,7.32
2022-11-23T15:20:12.437Z,9.32
2022-11-23T15:23:23.250Z,8.27
2022-11-23T15:30:01.199Z,6.78
2022-11-23T15:33:09.913Z,6.45
2022-11-23T15:36:13.583Z,5.85
2022-11-23T15:39:19.275Z,5.32
2022-11-23T15:42:26.604Z,6.30
2022-11-23T15:46:01.251Z,5.55
2022-11-23T15:49:06.341Z,5.47
2022-11-23T15:52:15.655Z,4.80
2022-11-23T15:55:22.650Z,5.47
2022-11-23T16:01:54.398Z,5.82
2022-11-23T16:05:16.441Z,4.78
2022-11-23T16:08:32.640Z,5.15
2022-11-23T16:15:40.672Z,5.28
2022-11-23T16:18:48.853Z,4.07
2022-11-23T16:22:01.955Z,4.15
2022-11-23T16:25:28.865Z,5.15
2022-11-23T16:28:33.293Z,4.80
2022-11-23T16:31:40.600Z,4.95
2022-11-23T16:34:46.125Z,4.60
2022-11-23T16:37:49.946Z,4.53
2022-11-23T16:40:53.444Z,4.75
2022-11-23T16:43:55.508Z,5.38
2022-11-23T16:47:22.211Z,5.35
2022-11-23T16:50:24.939Z,6.55
2022-11-23T16:53:30.255Z,5.47
2022-11-23T16:56:33.097Z,5.43
2022-11-23T16:59:39.184Z,5.15
2022-11-23T17:02:42.836Z,4.97
2022-11-23T17:05:45.911Z,5.13
2022-11-23T17:08:51.519Z,5.65
2022-11-23T17:11:59.622Z,5.72
2022-11-23T17:15:01.757Z,6.22
2022-11-23T17:18:05.513Z,6.70
2022-11-23T17:21:07.821Z,6.40
2022-11-23T17:24:11.291Z,6.07
2022-11-23T17:27:20.641Z,7.13
2022-11-23T17:30:23.667Z,6.22
2022-11-23T17:33:25.726Z,6.80
2022-11-23T17:36:30.509Z,5.43
2022-11-23T17:39:33.779Z,6.40
2022-11-23T17:42:36.892Z,5.45
2022-11-23T17:45:42.323Z,4.95
2022-11-23T17:48:55.521Z,7.15
2022-11-23T17:52:10.722Z,6.43
2022-11-23T18:04:59.364Z,6.68
2022-11-23T18:08:01.788Z,6.05
2022-11-23T18:11:04.011Z,5.65
2022-11-23T18:14:17.706Z,5.47
2022-11-23T18:17:22.541Z,5.35
2022-11-23T18:20:25.281Z,5.97
2022-11-23T18:23:42.229Z,5.32
2022-11-23T18:26:44.217Z,5.88
2022-11-23T18:30:24.842Z,6.30
2022-11-23T18:37:35.464Z,6.50
2022-11-23T18:40:59.187Z,6.53
2022-11-23T18:44:01.261Z,5.20
2022-11-23T18:47:03.754Z,5.47
2022-11-23T18:50:07.047Z,7.03
2022-11-23T18:53:09.178Z,7.00
2022-11-23T19:04:10.332Z,5.63
2022-11-23T19:12:50.989Z,5.65
2022-11-23T19:20:56.959Z,5.68
2022-11-23T19:32:31.428Z,4.68
2022-11-23T19:35:34.638Z,4.85
2022-11-23T20:17:16.913Z,3.30
2022-11-23T20:20:19.111Z,3.13
2022-11-23T20:23:22.482Z,3.65
2022-11-23T20:26:25.807Z,3.42
2022-11-23T20:29:28.111Z,4.35
2022-11-23T20:32:30.119Z,3.67
2022-11-23T20:35:32.229Z,3.70
2022-11-23T20:38:38.936Z,4.43
2022-11-23T20:41:52.826Z,3.42
2022-11-23T20:44:55.922Z,3.78
2022-11-23T20:53:41.432Z,5.88
2022-11-23T21:55:30.593Z,4.53
2022-11-23T22:43:23.266Z,4.88
2022-11-23T22:46:29.838Z,6.07
2022-11-23T22:49:31.969Z,4.07
2022-11-23T22:52:36.516Z,5.28
2022-11-23T22:55:39.798Z,4.88
2022-11-23T22:58:42.540Z,4.57
2022-11-23T23:01:44.914Z,4.53
2022-11-23T23:04:47.945Z,4.43
2022-11-23T23:07:50.967Z,5.32
2022-11-23T23:10:53.865Z,5.40
2022-11-23T23:13:59.810Z,5.70
2022-11-23T23:17:03.651Z,5.28
2022-11-23T23:20:06.468Z,6.00
2022-11-23T23:23:13.755Z,6.07
2022-11-23T23:26:17.963Z,6.38
2022-11-23T23:29:21.266Z,5.95
2022-11-23T23:32:23.360Z,6.78
2022-11-23T23:35:26.453Z,5.35
2022-11-23T23:38:30.033Z,6.05
2022-11-23T23:41:32.143Z,6.38
2022-11-23T23:44:36.051Z,6.30
2022-11-23T23:47:39.628Z,6.38
2022-11-23T23:50:44.017Z,5.55
2022-11-23T23:53:47.207Z,4.60
2022-11-23T23:56:51.365Z,5.18
2022-11-23T23:59:53.479Z,4.90
